sensor_id;sensor_type;location;lat;lon;timestamp;P1;P2;P0
48155;PMS5003;35568;48.104;11.782;2024-02-28T00:02:00;16;14;
48155;PMS5003;35568;48.104;11.782;2024-02-28T00:04:27;19;17;
48155;PMS5003;35568;48.104;11.782;2024-02-28T00:06:54;23;21;
48155;PMS5003;35568;48.104;11.782;2024-02-28T00:09:21;18;16;
48155;PMS5003;35568;48.104;11.782;2024-02-28T00:11:48;22;22;
48155;PMS5003;35568;48.104;11.782;2024-02-28T00:14:15;19;17;
48155;PMS5003;35568;48.104;11.782;2024-02-28T00:16:43;20;20;
48155;PMS5003;35568;48.104;11.782;2024-02-28T00:19:10;25;24;
48155;PMS5003;35568;48.104;11.782;2024-02-28T00:21:38;19;17;
48155;PMS5003;35568;48.104;11.782;2024-02-28T00:24:06;20;19;
48155;PMS5003;35568;48.104;11.782;2024-02-28T00:26:33;22;20;
48155;PMS5003;35568;48.104;11.782;2024-02-28T00:29:00;21;19;
48155;PMS5003;35568;48.104;11.782;2024-02-28T00:31:27;23;21;
48155;PMS5003;35568;48.104;11.782;2024-02-28T00:33:55;21;21;
48155;PMS5003;35568;48.104;11.782;2024-02-28T00:36:21;17;17;
48155;PMS5003;35568;48.104;11.782;2024-02-28T00:38:48;19;19;
48155;PMS5003;35568;48.104;11.782;2024-02-28T00:41:15;20;19;
48155;PMS5003;35568;48.104;11.782;2024-02-28T00:43:42;19;19;
48155;PMS5003;35568;48.104;11.782;2024-02-28T00:46:09;20;19;
48155;PMS5003;35568;48.104;11.782;2024-02-28T00:48:36;20;18;
48155;PMS5003;35568;48.104;11.782;2024-02-28T00:51:03;21;19;
48155;PMS5003;35568;48.104;11.782;2024-02-28T00:53:30;15;14;
48155;PMS5003;35568;48.104;11.782;2024-02-28T00:55:57;18;17;
48155;PMS5003;35568;48.104;11.782;2024-02-28T00:58:24;22;21;
48155;PMS5003;35568;48.104;11.782;2024-02-28T01:00:50;22;20;
48155;PMS5003;35568;48.104;11.782;2024-02-28T01:03:17;20;19;
48155;PMS5003;35568;48.104;11.782;2024-02-28T01:05:44;18;18;
48155;PMS5003;35568;48.104;11.782;2024-02-28T01:08:11;23;21;
48155;PMS5003;35568;48.104;11.782;2024-02-28T01:10:38;19;18;
48155;PMS5003;35568;48.104;11.782;2024-02-28T01:13:05;20;19;
48155;PMS5003;35568;48.104;11.782;2024-02-28T01:15:31;21;20;
48155;PMS5003;35568;48.104;11.782;2024-02-28T01:17:59;20;20;
48155;PMS5003;35568;48.104;11.782;2024-02-28T01:20:26;22;21;
48155;PMS5003;35568;48.104;11.782;2024-02-28T01:22:53;18;18;
48155;PMS5003;35568;48.104;11.782;2024-02-28T01:25:20;24;20;
48155;PMS5003;35568;48.104;11.782;2024-02-28T01:27:47;20;20;
48155;PMS5003;35568;48.104;11.782;2024-02-28T01:30:14;22;20;
48155;PMS5003;35568;48.104;11.782;2024-02-28T01:32:41;25;22;
48155;PMS5003;35568;48.104;11.782;2024-02-28T01:35:08;18;17;
48155;PMS5003;35568;48.104;11.782;2024-02-28T01:37:35;17;17;
48155;PMS5003;35568;48.104;11.782;2024-02-28T01:40:02;17;17;
48155;PMS5003;35568;48.104;11.782;2024-02-28T01:42:30;21;20;
48155;PMS5003;35568;48.104;11.782;2024-02-28T01:44:57;20;18;
48155;PMS5003;35568;48.104;11.782;2024-02-28T01:47:24;17;16;
48155;PMS5003;35568;48.104;11.782;2024-02-28T01:49:51;21;20;
48155;PMS5003;35568;48.104;11.782;2024-02-28T01:52:18;20;20;
48155;PMS5003;35568;48.104;11.782;2024-02-28T01:54:46;21;21;
48155;PMS5003;35568;48.104;11.782;2024-02-28T01:57:13;19;18;
48155;PMS5003;35568;48.104;11.782;2024-02-28T01:59:40;23;22;
48155;PMS5003;35568;48.104;11.782;2024-02-28T02:02:07;24;21;
48155;PMS5003;35568;48.104;11.782;2024-02-28T02:04:34;20;17;
48155;PMS5003;35568;48.104;11.782;2024-02-28T02:07:01;18;17;
48155;PMS5003;35568;48.104;11.782;2024-02-28T02:09:28;20;19;
48155;PMS5003;35568;48.104;11.782;2024-02-28T02:11:55;21;19;
48155;PMS5003;35568;48.104;11.782;2024-02-28T02:14:22;22;21;
48155;PMS5003;35568;48.104;11.782;2024-02-28T02:16:49;19;18;
48155;PMS5003;35568;48.104;11.782;2024-02-28T02:19:16;24;23;
48155;PMS5003;35568;48.104;11.782;2024-02-28T02:21:48;21;20;
48155;PMS5003;35568;48.104;11.782;2024-02-28T02:24:18;17;16;
48155;PMS5003;35568;48.104;11.782;2024-02-28T02:26:46;18;18;
48155;PMS5003;35568;48.104;11.782;2024-02-28T02:29:13;23;22;
48155;PMS5003;35568;48.104;11.782;2024-02-28T02:31:40;24;24;
48155;PMS5003;35568;48.104;11.782;2024-02-28T02:34:07;25;24;
48155;PMS5003;35568;48.104;11.782;2024-02-28T02:36:34;23;21;
48155;PMS5003;35568;48.104;11.782;2024-02-28T02:39:01;20;20;
48155;PMS5003;35568;48.104;11.782;2024-02-28T02:41:29;20;19;
48155;PMS5003;35568;48.104;11.782;2024-02-28T02:43:56;20;19;
48155;PMS5003;35568;48.104;11.782;2024-02-28T02:46:23;25;24;
48155;PMS5003;35568;48.104;11.782;2024-02-28T02:48:50;24;23;
48155;PMS5003;35568;48.104;11.782;2024-02-28T02:51:17;25;24;
48155;PMS5003;35568;48.104;11.782;2024-02-28T02:53:45;29;26;
48155;PMS5003;35568;48.104;11.782;2024-02-28T02:56:12;29;28;
48155;PMS5003;35568;48.104;11.782;2024-02-28T02:58:39;21;20;
48155;PMS5003;35568;48.104;11.782;2024-02-28T03:01:06;24;24;
48155;PMS5003;35568;48.104;11.782;2024-02-28T03:03:34;22;21;
48155;PMS5003;35568;48.104;11.782;2024-02-28T03:06:01;23;22;
48155;PMS5003;35568;48.104;11.782;2024-02-28T03:08:29;30;30;
48155;PMS5003;35568;48.104;11.782;2024-02-28T03:10:56;25;24;
48155;PMS5003;35568;48.104;11.782;2024-02-28T03:13:22;28;26;
48155;PMS5003;35568;48.104;11.782;2024-02-28T03:15:49;32;29;
48155;PMS5003;35568;48.104;11.782;2024-02-28T03:18:17;25;25;
48155;PMS5003;35568;48.104;11.782;2024-02-28T03:20:44;29;26;
48155;PMS5003;35568;48.104;11.782;2024-02-28T03:23:11;29;27;
48155;PMS5003;35568;48.104;11.782;2024-02-28T03:25:37;25;23;
48155;PMS5003;35568;48.104;11.782;2024-02-28T03:28:05;24;24;
48155;PMS5003;35568;48.104;11.782;2024-02-28T03:30:32;22;21;
48155;PMS5003;35568;48.104;11.782;2024-02-28T03:32:59;29;23;
48155;PMS5003;35568;48.104;11.782;2024-02-28T03:35:26;31;30;
48155;PMS5003;35568;48.104;11.782;2024-02-28T03:37:53;29;27;
48155;PMS5003;35568;48.104;11.782;2024-02-28T03:40:19;27;26;
48155;PMS5003;35568;48.104;11.782;2024-02-28T03:42:47;26;24;
48155;PMS5003;35568;48.104;11.782;2024-02-28T03:45:14;30;25;
48155;PMS5003;35568;48.104;11.782;2024-02-28T03:47:41;24;24;
48155;PMS5003;35568;48.104;11.782;2024-02-28T03:50:08;30;28;
48155;PMS5003;35568;48.104;11.782;2024-02-28T03:52:35;29;25;
48155;PMS5003;35568;48.104;11.782;2024-02-28T03:55:03;35;31;
48155;PMS5003;35568;48.104;11.782;2024-02-28T03:57:30;28;25;
48155;PMS5003;35568;48.104;11.782;2024-02-28T03:59:57;29;27;
48155;PMS5003;35568;48.104;11.782;2024-02-28T04:03:00;27;25;
48155;PMS5003;35568;48.104;11.782;2024-02-28T04:05:27;24;23;
48155;PMS5003;35568;48.104;11.782;2024-02-28T04:07:54;26;25;
48155;PMS5003;35568;48.104;11.782;2024-02-28T04:10:20;24;22;
48155;PMS5003;35568;48.104;11.782;2024-02-28T04:12:47;35;31;
48155;PMS5003;35568;48.104;11.782;2024-02-28T04:15:15;21;20;
48155;PMS5003;35568;48.104;11.782;2024-02-28T04:17:42;32;31;
48155;PMS5003;35568;48.104;11.782;2024-02-28T04:20:09;28;27;
48155;PMS5003;35568;48.104;11.782;2024-02-28T04:22:36;26;24;
48155;PMS5003;35568;48.104;11.782;2024-02-28T04:25:04;23;22;
48155;PMS5003;35568;48.104;11.782;2024-02-28T04:27:31;27;25;
48155;PMS5003;35568;48.104;11.782;2024-02-28T04:29:58;31;29;
48155;PMS5003;35568;48.104;11.782;2024-02-28T04:32:25;29;29;
48155;PMS5003;35568;48.104;11.782;2024-02-28T04:34:52;32;27;
48155;PMS5003;35568;48.104;11.782;2024-02-28T04:37:20;23;23;
48155;PMS5003;35568;48.104;11.782;2024-02-28T04:39:48;27;26;
48155;PMS5003;35568;48.104;11.782;2024-02-28T04:42:15;29;27;
48155;PMS5003;35568;48.104;11.782;2024-02-28T04:44:42;30;29;
48155;PMS5003;35568;48.104;11.782;2024-02-28T04:47:09;28;26;
48155;PMS5003;35568;48.104;11.782;2024-02-28T04:49:36;21;21;
48155;PMS5003;35568;48.104;11.782;2024-02-28T04:52:03;25;24;
48155;PMS5003;35568;48.104;11.782;2024-02-28T04:54:31;28;26;
48155;PMS5003;35568;48.104;11.782;2024-02-28T04:56:58;29;26;
48155;PMS5003;35568;48.104;11.782;2024-02-28T04:59:24;29;27;
48155;PMS5003;35568;48.104;11.782;2024-02-28T05:01:52;30;27;
48155;PMS5003;35568;48.104;11.782;2024-02-28T05:04:19;29;28;
48155;PMS5003;35568;48.104;11.782;2024-02-28T05:06:46;27;27;
48155;PMS5003;35568;48.104;11.782;2024-02-28T05:09:13;31;29;
48155;PMS5003;35568;48.104;11.782;2024-02-28T05:11:40;29;28;
48155;PMS5003;35568;48.104;11.782;2024-02-28T05:14:07;27;26;
48155;PMS5003;35568;48.104;11.782;2024-02-28T05:16:36;24;23;
48155;PMS5003;35568;48.104;11.782;2024-02-28T05:19:03;27;26;
48155;PMS5003;35568;48.104;11.782;2024-02-28T05:21:30;25;24;
48155;PMS5003;35568;48.104;11.782;2024-02-28T05:23:57;27;25;
48155;PMS5003;35568;48.104;11.782;2024-02-28T05:26:25;30;29;
48155;PMS5003;35568;48.104;11.782;2024-02-28T05:28:52;29;27;
48155;PMS5003;35568;48.104;11.782;2024-02-28T05:31:20;34;29;
48155;PMS5003;35568;48.104;11.782;2024-02-28T05:33:49;26;25;
48155;PMS5003;35568;48.104;11.782;2024-02-28T05:36:17;26;25;
48155;PMS5003;35568;48.104;11.782;2024-02-28T05:38:44;24;24;
48155;PMS5003;35568;48.104;11.782;2024-02-28T05:41:11;28;25;
48155;PMS5003;35568;48.104;11.782;2024-02-28T05:43:39;26;23;
48155;PMS5003;35568;48.104;11.782;2024-02-28T05:46:06;29;26;
48155;PMS5003;35568;48.104;11.782;2024-02-28T05:48:34;26;26;
48155;PMS5003;35568;48.104;11.782;2024-02-28T05:51:01;30;25;
48155;PMS5003;35568;48.104;11.782;2024-02-28T05:53:29;29;27;
48155;PMS5003;35568;48.104;11.782;2024-02-28T05:55:56;30;27;
48155;PMS5003;35568;48.104;11.782;2024-02-28T05:58:23;35;33;
48155;PMS5003;35568;48.104;11.782;2024-02-28T06:00:49;29;26;
48155;PMS5003;35568;48.104;11.782;2024-02-28T06:03:17;29;28;
48155;PMS5003;35568;48.104;11.782;2024-02-28T06:05:44;27;26;
48155;PMS5003;35568;48.104;11.782;2024-02-28T06:08:12;27;25;
48155;PMS5003;35568;48.104;11.782;2024-02-28T06:10:39;30;26;
48155;PMS5003;35568;48.104;11.782;2024-02-28T06:13:06;23;22;
48155;PMS5003;35568;48.104;11.782;2024-02-28T06:15:33;29;28;
48155;PMS5003;35568;48.104;11.782;2024-02-28T06:18:00;31;29;
48155;PMS5003;35568;48.104;11.782;2024-02-28T06:20:27;32;31;
48155;PMS5003;35568;48.104;11.782;2024-02-28T06:22:54;38;32;
48155;PMS5003;35568;48.104;11.782;2024-02-28T06:25:21;26;25;
48155;PMS5003;35568;48.104;11.782;2024-02-28T06:27:48;32;31;
48155;PMS5003;35568;48.104;11.782;2024-02-28T06:30:16;28;26;
48155;PMS5003;35568;48.104;11.782;2024-02-28T06:32:43;33;31;
48155;PMS5003;35568;48.104;11.782;2024-02-28T06:35:10;27;26;
48155;PMS5003;35568;48.104;11.782;2024-02-28T06:37:37;33;30;
48155;PMS5003;35568;48.104;11.782;2024-02-28T06:40:05;29;29;
48155;PMS5003;35568;48.104;11.782;2024-02-28T06:42:33;29;26;
48155;PMS5003;35568;48.104;11.782;2024-02-28T06:45:00;27;27;
48155;PMS5003;35568;48.104;11.782;2024-02-28T06:47:27;29;28;
48155;PMS5003;35568;48.104;11.782;2024-02-28T06:49:54;33;28;
48155;PMS5003;35568;48.104;11.782;2024-02-28T06:52:21;33;30;
48155;PMS5003;35568;48.104;11.782;2024-02-28T06:54:48;28;27;
48155;PMS5003;35568;48.104;11.782;2024-02-28T06:57:15;40;36;
48155;PMS5003;35568;48.104;11.782;2024-02-28T06:59:42;34;29;
48155;PMS5003;35568;48.104;11.782;2024-02-28T07:02:09;33;32;
48155;PMS5003;35568;48.104;11.782;2024-02-28T07:04:36;30;29;
48155;PMS5003;35568;48.104;11.782;2024-02-28T07:07:04;32;31;
48155;PMS5003;35568;48.104;11.782;2024-02-28T07:09:31;35;31;
48155;PMS5003;35568;48.104;11.782;2024-02-28T07:11:58;30;28;
48155;PMS5003;35568;48.104;11.782;2024-02-28T07:14:24;33;30;
48155;PMS5003;35568;48.104;11.782;2024-02-28T07:16:52;41;34;
48155;PMS5003;35568;48.104;11.782;2024-02-28T07:19:18;38;35;
48155;PMS5003;35568;48.104;11.782;2024-02-28T07:21:45;37;35;
48155;PMS5003;35568;48.104;11.782;2024-02-28T07:24:12;43;38;
48155;PMS5003;35568;48.104;11.782;2024-02-28T07:26:40;31;29;
48155;PMS5003;35568;48.104;11.782;2024-02-28T07:29:07;29;28;
48155;PMS5003;35568;48.104;11.782;2024-02-28T07:31:34;32;29;
48155;PMS5003;35568;48.104;11.782;2024-02-28T07:34:01;33;31;
48155;PMS5003;35568;48.104;11.782;2024-02-28T07:36:28;32;32;
48155;PMS5003;35568;48.104;11.782;2024-02-28T07:38:55;38;34;
48155;PMS5003;35568;48.104;11.782;2024-02-28T07:41:22;35;30;
48155;PMS5003;35568;48.104;11.782;2024-02-28T07:43:49;37;33;
48155;PMS5003;35568;48.104;11.782;2024-02-28T07:46:16;30;29;
48155;PMS5003;35568;48.104;11.782;2024-02-28T07:48:43;37;37;
48155;PMS5003;35568;48.104;11.782;2024-02-28T07:51:10;32;31;
48155;PMS5003;35568;48.104;11.782;2024-02-28T07:53:37;31;30;
48155;PMS5003;35568;48.104;11.782;2024-02-28T07:56:04;34;32;
48155;PMS5003;35568;48.104;11.782;2024-02-28T07:58:31;34;30;
48155;PMS5003;35568;48.104;11.782;2024-02-28T08:00:58;30;29;
48155;PMS5003;35568;48.104;11.782;2024-02-28T08:03:25;30;30;
48155;PMS5003;35568;48.104;11.782;2024-02-28T08:05:52;30;28;
48155;PMS5003;35568;48.104;11.782;2024-02-28T08:08:20;44;39;
48155;PMS5003;35568;48.104;11.782;2024-02-28T08:10:47;30;29;
48155;PMS5003;35568;48.104;11.782;2024-02-28T08:13:14;48;46;
48155;PMS5003;35568;48.104;11.782;2024-02-28T08:15:41;28;27;
48155;PMS5003;35568;48.104;11.782;2024-02-28T08:18:08;32;30;
48155;PMS5003;35568;48.104;11.782;2024-02-28T08:20:35;40;39;
48155;PMS5003;35568;48.104;11.782;2024-02-28T08:23:02;35;33;
48155;PMS5003;35568;48.104;11.782;2024-02-28T08:25:29;34;33;
48155;PMS5003;35568;48.104;11.782;2024-02-28T08:27:57;36;34;
48155;PMS5003;35568;48.104;11.782;2024-02-28T08:30:24;33;33;
48155;PMS5003;35568;48.104;11.782;2024-02-28T08:32:51;27;27;
48155;PMS5003;35568;48.104;11.782;2024-02-28T08:35:18;36;35;
48155;PMS5003;35568;48.104;11.782;2024-02-28T08:37:46;36;33;
48155;PMS5003;35568;48.104;11.782;2024-02-28T08:40:12;34;28;
48155;PMS5003;35568;48.104;11.782;2024-02-28T08:42:40;37;33;
48155;PMS5003;35568;48.104;11.782;2024-02-28T08:45:07;35;33;
48155;PMS5003;35568;48.104;11.782;2024-02-28T08:47:36;36;34;
48155;PMS5003;35568;48.104;11.782;2024-02-28T08:50:03;33;30;
48155;PMS5003;35568;48.104;11.782;2024-02-28T08:52:30;33;32;
48155;PMS5003;35568;48.104;11.782;2024-02-28T08:54:57;42;38;
48155;PMS5003;35568;48.104;11.782;2024-02-28T08:57:23;35;32;
48155;PMS5003;35568;48.104;11.782;2024-02-28T08:59:50;29;28;
48155;PMS5003;35568;48.104;11.782;2024-02-28T09:02:17;29;26;
48155;PMS5003;35568;48.104;11.782;2024-02-28T09:04:44;30;30;
48155;PMS5003;35568;48.104;11.782;2024-02-28T09:07:11;31;29;
48155;PMS5003;35568;48.104;11.782;2024-02-28T09:09:41;33;31;
48155;PMS5003;35568;48.104;11.782;2024-02-28T09:12:08;33;30;
48155;PMS5003;35568;48.104;11.782;2024-02-28T09:14:35;31;31;
48155;PMS5003;35568;48.104;11.782;2024-02-28T09:17:03;30;27;
48155;PMS5003;35568;48.104;11.782;2024-02-28T09:19:30;34;32;
48155;PMS5003;35568;48.104;11.782;2024-02-28T09:21:58;33;32;
48155;PMS5003;35568;48.104;11.782;2024-02-28T09:24:25;30;29;
48155;PMS5003;35568;48.104;11.782;2024-02-28T09:26:53;27;26;
48155;PMS5003;35568;48.104;11.782;2024-02-28T09:29:20;31;27;
48155;PMS5003;35568;48.104;11.782;2024-02-28T09:31:47;31;30;
48155;PMS5003;35568;48.104;11.782;2024-02-28T09:34:14;30;29;
48155;PMS5003;35568;48.104;11.782;2024-02-28T09:36:41;27;26;
48155;PMS5003;35568;48.104;11.782;2024-02-28T09:39:09;26;26;
48155;PMS5003;35568;48.104;11.782;2024-02-28T09:41:35;32;29;
48155;PMS5003;35568;48.104;11.782;2024-02-28T09:44:03;28;28;
48155;PMS5003;35568;48.104;11.782;2024-02-28T09:46:33;25;24;
48155;PMS5003;35568;48.104;11.782;2024-02-28T09:49:01;31;29;
48155;PMS5003;35568;48.104;11.782;2024-02-28T09:51:30;27;25;
48155;PMS5003;35568;48.104;11.782;2024-02-28T09:53:59;29;28;
48155;PMS5003;35568;48.104;11.782;2024-02-28T09:56:26;29;26;
48155;PMS5003;35568;48.104;11.782;2024-02-28T09:58:53;29;27;
48155;PMS5003;35568;48.104;11.782;2024-02-28T10:01:21;31;29;
48155;PMS5003;35568;48.104;11.782;2024-02-28T10:03:49;37;31;
48155;PMS5003;35568;48.104;11.782;2024-02-28T10:06:19;33;32;
48155;PMS5003;35568;48.104;11.782;2024-02-28T10:08:46;33;32;
48155;PMS5003;35568;48.104;11.782;2024-02-28T10:11:17;33;30;
48155;PMS5003;35568;48.104;11.782;2024-02-28T10:13:45;35;33;
48155;PMS5003;35568;48.104;11.782;2024-02-28T10:16:11;34;31;
48155;PMS5003;35568;48.104;11.782;2024-02-28T10:18:39;31;29;
48155;PMS5003;35568;48.104;11.782;2024-02-28T10:21:06;34;31;
48155;PMS5003;35568;48.104;11.782;2024-02-28T10:23:33;31;29;
48155;PMS5003;35568;48.104;11.782;2024-02-28T10:26:03;31;30;
48155;PMS5003;35568;48.104;11.782;2024-02-28T10:28:30;31;28;
48155;PMS5003;35568;48.104;11.782;2024-02-28T10:30:57;38;35;
48155;PMS5003;35568;48.104;11.782;2024-02-28T10:33:26;29;27;
48155;PMS5003;35568;48.104;11.782;2024-02-28T10:35:54;34;33;
48155;PMS5003;35568;48.104;11.782;2024-02-28T10:38:22;34;33;
48155;PMS5003;35568;48.104;11.782;2024-02-28T10:40:51;31;28;
48155;PMS5003;35568;48.104;11.782;2024-02-28T10:43:19;30;27;
48155;PMS5003;35568;48.104;11.782;2024-02-28T10:45:46;36;34;
48155;PMS5003;35568;48.104;11.782;2024-02-28T10:48:14;30;29;
48155;PMS5003;35568;48.104;11.782;2024-02-28T10:50:40;30;29;
48155;PMS5003;35568;48.104;11.782;2024-02-28T10:53:12;34;31;
48155;PMS5003;35568;48.104;11.782;2024-02-28T10:55:40;34;32;
48155;PMS5003;35568;48.104;11.782;2024-02-28T10:58:08;31;29;
48155;PMS5003;35568;48.104;11.782;2024-02-28T11:00:36;34;31;
48155;PMS5003;35568;48.104;11.782;2024-02-28T11:03:05;34;29;
48155;PMS5003;35568;48.104;11.782;2024-02-28T11:05:35;28;26;
48155;PMS5003;35568;48.104;11.782;2024-02-28T11:08:03;32;29;
48155;PMS5003;35568;48.104;11.782;2024-02-28T11:10:31;29;28;
48155;PMS5003;35568;48.104;11.782;2024-02-28T11:12:57;29;28;
48155;PMS5003;35568;48.104;11.782;2024-02-28T11:15:24;29;27;
48155;PMS5003;35568;48.104;11.782;2024-02-28T11:17:52;32;30;
48155;PMS5003;35568;48.104;11.782;2024-02-28T11:20:18;31;30;
48155;PMS5003;35568;48.104;11.782;2024-02-28T11:22:45;36;31;
48155;PMS5003;35568;48.104;11.782;2024-02-28T11:25:13;30;27;
48155;PMS5003;35568;48.104;11.782;2024-02-28T11:27:47;38;34;
48155;PMS5003;35568;48.104;11.782;2024-02-28T11:30:14;34;32;
48155;PMS5003;35568;48.104;11.782;2024-02-28T11:32:42;33;31;
48155;PMS5003;35568;48.104;11.782;2024-02-28T11:35:09;31;30;
48155;PMS5003;35568;48.104;11.782;2024-02-28T11:37:37;36;35;
48155;PMS5003;35568;48.104;11.782;2024-02-28T11:40:06;32;31;
48155;PMS5003;35568;48.104;11.782;2024-02-28T11:42:34;37;32;
48155;PMS5003;35568;48.104;11.782;2024-02-28T11:45:01;35;28;
48155;PMS5003;35568;48.104;11.782;2024-02-28T11:47:29;40;37;
48155;PMS5003;35568;48.104;11.782;2024-02-28T11:49:57;34;29;
48155;PMS5003;35568;48.104;11.782;2024-02-28T11:52:25;30;30;
48155;PMS5003;35568;48.104;11.782;2024-02-28T11:54:52;30;29;
48155;PMS5003;35568;48.104;11.782;2024-02-28T11:57:19;30;29;
48155;PMS5003;35568;48.104;11.782;2024-02-28T11:59:47;32;28;
48155;PMS5003;35568;48.104;11.782;2024-02-28T12:02:14;32;31;
48155;PMS5003;35568;48.104;11.782;2024-02-28T12:04:42;30;29;
48155;PMS5003;35568;48.104;11.782;2024-02-28T12:07:09;31;29;
48155;PMS5003;35568;48.104;11.782;2024-02-28T12:09:36;35;31;
48155;PMS5003;35568;48.104;11.782;2024-02-28T12:12:06;37;34;
48155;PMS5003;35568;48.104;11.782;2024-02-28T12:14:36;31;29;
48155;PMS5003;35568;48.104;11.782;2024-02-28T12:17:07;31;30;
48155;PMS5003;35568;48.104;11.782;2024-02-28T12:19:35;36;32;
48155;PMS5003;35568;48.104;11.782;2024-02-28T12:22:01;34;32;
48155;PMS5003;35568;48.104;11.782;2024-02-28T12:24:29;28;27;
48155;PMS5003;35568;48.104;11.782;2024-02-28T12:26:56;33;31;
48155;PMS5003;35568;48.104;11.782;2024-02-28T12:29:23;30;29;
48155;PMS5003;35568;48.104;11.782;2024-02-28T12:31:50;34;33;
48155;PMS5003;35568;48.104;11.782;2024-02-28T12:34:17;38;36;
48155;PMS5003;35568;48.104;11.782;2024-02-28T12:36:44;33;31;
48155;PMS5003;35568;48.104;11.782;2024-02-28T12:39:11;34;32;
48155;PMS5003;35568;48.104;11.782;2024-02-28T12:41:38;38;31;
48155;PMS5003;35568;48.104;11.782;2024-02-28T12:44:06;28;27;
48155;PMS5003;35568;48.104;11.782;2024-02-28T12:46:33;29;28;
48155;PMS5003;35568;48.104;11.782;2024-02-28T12:49:01;31;26;
48155;PMS5003;35568;48.104;11.782;2024-02-28T12:51:37;29;27;
48155;PMS5003;35568;48.104;11.782;2024-02-28T12:54:06;33;30;
48155;PMS5003;35568;48.104;11.782;2024-02-28T12:56:33;35;33;
48155;PMS5003;35568;48.104;11.782;2024-02-28T12:59:01;30;30;
48155;PMS5003;35568;48.104;11.782;2024-02-28T13:01:30;33;29;
48155;PMS5003;35568;48.104;11.782;2024-02-28T13:03:58;30;27;
48155;PMS5003;35568;48.104;11.782;2024-02-28T13:06:25;29;28;
48155;PMS5003;35568;48.104;11.782;2024-02-28T13:08:52;30;27;
48155;PMS5003;35568;48.104;11.782;2024-02-28T13:11:19;34;31;
48155;PMS5003;35568;48.104;11.782;2024-02-28T13:13:49;30;30;
48155;PMS5003;35568;48.104;11.782;2024-02-28T13:16:17;26;26;
48155;PMS5003;35568;48.104;11.782;2024-02-28T13:18:45;24;23;
48155;PMS5003;35568;48.104;11.782;2024-02-28T13:21:12;34;32;
48155;PMS5003;35568;48.104;11.782;2024-02-28T13:23:39;33;25;
48155;PMS5003;35568;48.104;11.782;2024-02-28T13:26:06;31;26;
48155;PMS5003;35568;48.104;11.782;2024-02-28T13:28:34;33;29;
48155;PMS5003;35568;48.104;11.782;2024-02-28T13:31:02;32;30;
48155;PMS5003;35568;48.104;11.782;2024-02-28T13:33:29;30;30;
48155;PMS5003;35568;48.104;11.782;2024-02-28T13:35:56;26;23;
48155;PMS5003;35568;48.104;11.782;2024-02-28T13:38:23;38;35;
48155;PMS5003;35568;48.104;11.782;2024-02-28T13:40:50;31;29;
48155;PMS5003;35568;48.104;11.782;2024-02-28T13:43:18;25;25;
48155;PMS5003;35568;48.104;11.782;2024-02-28T13:45:46;32;28;
48155;PMS5003;35568;48.104;11.782;2024-02-28T13:48:15;34;28;
48155;PMS5003;35568;48.104;11.782;2024-02-28T13:50:43;29;26;
48155;PMS5003;35568;48.104;11.782;2024-02-28T13:53:10;35;29;
48155;PMS5003;35568;48.104;11.782;2024-02-28T13:55:37;27;23;
48155;PMS5003;35568;48.104;11.782;2024-02-28T13:58:04;33;31;
48155;PMS5003;35568;48.104;11.782;2024-02-28T14:00:32;29;27;
48155;PMS5003;35568;48.104;11.782;2024-02-28T14:02:58;31;30;
48155;PMS5003;35568;48.104;11.782;2024-02-28T14:05:26;29;28;
48155;PMS5003;35568;48.104;11.782;2024-02-28T14:07:53;34;28;
48155;PMS5003;35568;48.104;11.782;2024-02-28T14:10:20;21;20;
48155;PMS5003;35568;48.104;11.782;2024-02-28T14:12:47;25;24;
48155;PMS5003;35568;48.104;11.782;2024-02-28T14:15:14;30;28;
48155;PMS5003;35568;48.104;11.782;2024-02-28T14:17:41;31;27;
48155;PMS5003;35568;48.104;11.782;2024-02-28T14:20:09;30;29;
48155;PMS5003;35568;48.104;11.782;2024-02-28T14:22:36;32;30;
48155;PMS5003;35568;48.104;11.782;2024-02-28T14:25:04;26;24;
48155;PMS5003;35568;48.104;11.782;2024-02-28T14:27:31;28;27;
48155;PMS5003;35568;48.104;11.782;2024-02-28T14:29:58;29;28;
48155;PMS5003;35568;48.104;11.782;2024-02-28T14:32:25;28;27;
48155;PMS5003;35568;48.104;11.782;2024-02-28T14:34:52;27;25;
48155;PMS5003;35568;48.104;11.782;2024-02-28T14:37:19;29;28;
48155;PMS5003;35568;48.104;11.782;2024-02-28T14:39:46;33;28;
48155;PMS5003;35568;48.104;11.782;2024-02-28T14:42:13;29;24;
48155;PMS5003;35568;48.104;11.782;2024-02-28T14:44:40;34;31;
48155;PMS5003;35568;48.104;11.782;2024-02-28T14:47:07;21;21;
48155;PMS5003;35568;48.104;11.782;2024-02-28T14:49:34;29;27;
48155;PMS5003;35568;48.104;11.782;2024-02-28T14:52:01;29;29;
48155;PMS5003;35568;48.104;11.782;2024-02-28T14:54:29;27;24;
48155;PMS5003;35568;48.104;11.782;2024-02-28T14:56:56;27;26;
48155;PMS5003;35568;48.104;11.782;2024-02-28T14:59:23;26;25;
48155;PMS5003;35568;48.104;11.782;2024-02-28T15:01:50;37;32;
48155;PMS5003;35568;48.104;11.782;2024-02-28T15:04:18;33;31;
48155;PMS5003;35568;48.104;11.782;2024-02-28T15:06:45;25;24;
48155;PMS5003;35568;48.104;11.782;2024-02-28T15:09:12;31;26;
48155;PMS5003;35568;48.104;11.782;2024-02-28T15:11:40;24;23;
48155;PMS5003;35568;48.104;11.782;2024-02-28T15:14:07;27;26;
48155;PMS5003;35568;48.104;11.782;2024-02-28T15:16:34;27;26;
48155;PMS5003;35568;48.104;11.782;2024-02-28T15:19:01;31;30;
48155;PMS5003;35568;48.104;11.782;2024-02-28T15:21:29;31;29;
48155;PMS5003;35568;48.104;11.782;2024-02-28T15:23:56;27;26;
48155;PMS5003;35568;48.104;11.782;2024-02-28T15:26:23;27;24;
48155;PMS5003;35568;48.104;11.782;2024-02-28T15:28:50;27;25;
48155;PMS5003;35568;48.104;11.782;2024-02-28T15:31:17;26;24;
48155;PMS5003;35568;48.104;11.782;2024-02-28T15:33:45;29;28;
48155;PMS5003;35568;48.104;11.782;2024-02-28T15:36:12;32;31;
48155;PMS5003;35568;48.104;11.782;2024-02-28T15:38:39;26;25;
48155;PMS5003;35568;48.104;11.782;2024-02-28T15:41:06;20;19;
48155;PMS5003;35568;48.104;11.782;2024-02-28T15:43:33;24;21;
48155;PMS5003;35568;48.104;11.782;2024-02-28T15:45:59;30;29;
48155;PMS5003;35568;48.104;11.782;2024-02-28T15:48:26;26;23;
48155;PMS5003;35568;48.104;11.782;2024-02-28T15:50:53;28;25;
48155;PMS5003;35568;48.104;11.782;2024-02-28T15:53:20;27;24;
48155;PMS5003;35568;48.104;11.782;2024-02-28T15:55:47;24;23;
48155;PMS5003;35568;48.104;11.782;2024-02-28T15:58:13;31;29;
48155;PMS5003;35568;48.104;11.782;2024-02-28T16:00:41;27;27;
48155;PMS5003;35568;48.104;11.782;2024-02-28T16:03:09;28;26;